createdAt,value
2019-05-26T00:02:14.849Z,13.53
2019-05-26T00:04:43.668Z,13.45
2019-05-26T00:07:12.644Z,13.45
2019-05-26T00:09:41.597Z,13.48
2019-05-26T00:12:10.633Z,13.42
2019-05-26T00:14:39.562Z,13.42
2019-05-26T00:17:08.866Z,13.38
2019-05-26T00:19:38.015Z,13.42
2019-05-26T00:22:07.184Z,13.39
2019-05-26T00:24:36.997Z,13.37
2019-05-26T00:27:05.891Z,13.37
2019-05-26T00:29:34.825Z,13.34
2019-05-26T00:32:03.846Z,13.34
2019-05-26T00:34:32.674Z,13.38
2019-05-26T00:37:03.441Z,13.36
2019-05-26T00:39:32.259Z,13.34
2019-05-26T00:42:01.285Z,13.38
2019-05-26T00:44:30.391Z,13.30
2019-05-26T00:46:59.305Z,13.28
2019-05-26T00:49:28.320Z,13.32
2019-05-26T00:51:58.699Z,13.32
2019-05-26T00:54:27.539Z,13.33
2019-05-26T00:56:56.375Z,13.31
2019-05-26T00:59:25.234Z,13.20
2019-05-26T01:01:54.242Z,13.21
2019-05-26T01:04:23.145Z,13.14
2019-05-26T01:06:52.080Z,13.15
2019-05-26T01:09:22.215Z,13.09
2019-05-26T01:11:51.059Z,13.05
2019-05-26T01:14:19.874Z,13.04
2019-05-26T01:16:48.773Z,12.94
2019-05-26T01:19:19.915Z,12.88
2019-05-26T01:21:49.096Z,12.83
2019-05-26T01:24:17.964Z,12.77
2019-05-26T01:26:46.892Z,12.73
2019-05-26T01:29:15.785Z,12.70
2019-05-26T01:31:44.600Z,12.62
2019-05-26T01:34:13.547Z,12.60
2019-05-26T01:36:42.575Z,12.53
2019-05-26T01:39:30.678Z,12.46
2019-05-26T01:41:59.521Z,12.45
2019-05-26T01:44:28.501Z,12.39
2019-05-26T01:46:57.360Z,12.31
2019-05-26T01:49:26.277Z,12.28
2019-05-26T01:51:55.141Z,12.25
2019-05-26T01:54:23.937Z,12.22
2019-05-26T01:56:52.752Z,12.12
2019-05-26T01:59:21.622Z,12.12
2019-05-26T02:01:50.479Z,12.14
2019-05-26T02:04:19.274Z,12.12
2019-05-26T02:06:48.007Z,12.09
2019-05-26T02:09:16.742Z,12.09
2019-05-26T02:11:45.877Z,12.13
2019-05-26T02:14:14.899Z,12.07
2019-05-26T02:16:43.778Z,12.02
2019-05-26T02:19:12.588Z,11.94
2019-05-26T02:21:43.468Z,11.89
2019-05-26T02:24:12.309Z,11.82
2019-05-26T02:26:41.143Z,11.74
2019-05-26T02:29:09.998Z,11.72
2019-05-26T02:31:38.890Z,11.70
2019-05-26T02:34:07.756Z,11.68
2019-05-26T02:36:36.784Z,11.67
2019-05-26T02:39:08.223Z,11.68
2019-05-26T02:41:37.201Z,11.69
2019-05-26T02:44:06.276Z,11.73
2019-05-26T02:46:35.128Z,11.80
2019-05-26T02:49:04.782Z,11.85
2019-05-26T02:51:34.772Z,11.87
2019-05-26T02:54:03.798Z,11.90
2019-05-26T02:56:33.020Z,11.91
2019-05-26T02:59:01.856Z,11.93
2019-05-26T03:01:30.981Z,11.91
2019-05-26T03:04:00.086Z,11.93
2019-05-26T03:06:30.617Z,11.89
2019-05-26T03:09:20.866Z,11.91
2019-05-26T03:11:33.275Z,11.92
2019-05-26T03:14:03.917Z,11.93
2019-05-26T03:16:35.370Z,12.01
2019-05-26T03:19:04.949Z,12.06
2019-05-26T03:21:35.883Z,12.06
2019-05-26T03:24:05.666Z,12.10
2019-05-26T03:26:34.715Z,12.13
2019-05-26T03:29:04.038Z,12.18
2019-05-26T03:31:33.073Z,12.19
2019-05-26T03:34:01.962Z,12.24
2019-05-26T03:36:30.823Z,12.28
2019-05-26T03:38:59.703Z,12.33
2019-05-26T03:41:28.634Z,12.38
2019-05-26T03:43:57.617Z,12.42
2019-05-26T03:46:26.550Z,12.41
2019-05-26T03:48:55.423Z,12.44
2019-05-26T03:51:24.618Z,12.46
2019-05-26T03:53:53.504Z,12.52
2019-05-26T03:56:22.400Z,12.55
2019-05-26T03:58:51.470Z,12.59
2019-05-26T04:01:21.021Z,12.64
2019-05-26T04:03:49.853Z,12.64
2019-05-26T04:06:18.726Z,12.67
2019-05-26T04:08:47.488Z,12.70
2019-05-26T04:11:16.367Z,12.69
2019-05-26T04:13:45.201Z,12.69
2019-05-26T04:16:14.070Z,12.71
2019-05-26T04:18:42.939Z,12.71
2019-05-26T04:21:11.765Z,12.74
2019-05-26T04:23:40.655Z,12.77
2019-05-26T04:26:09.495Z,12.77
2019-05-26T04:28:38.365Z,12.79
2019-05-26T04:31:07.371Z,12.80
2019-05-26T04:33:36.448Z,12.83
2019-05-26T04:36:05.636Z,12.84
2019-05-26T04:38:34.443Z,12.86
2019-05-26T04:41:03.368Z,12.91
2019-05-26T04:43:32.326Z,12.94
2019-05-26T04:46:01.277Z,12.98
2019-05-26T04:48:30.113Z,12.98
2019-05-26T04:50:59.067Z,12.99
2019-05-26T04:53:27.950Z,13.02
2019-05-26T04:55:56.877Z,13.04
2019-05-26T04:58:25.786Z,13.09
2019-05-26T05:00:54.729Z,13.11
2019-05-26T05:03:23.574Z,13.14
2019-05-26T05:05:52.361Z,13.19
2019-05-26T05:08:21.125Z,13.18
2019-05-26T05:10:50.078Z,13.20
2019-05-26T05:13:20.084Z,13.25
2019-05-26T05:15:48.893Z,13.28
2019-05-26T05:18:17.899Z,13.35
2019-05-26T05:20:47.925Z,13.40
2019-05-26T05:23:16.872Z,13.44
2019-05-26T05:25:45.939Z,13.50
2019-05-26T05:28:14.945Z,13.60
2019-05-26T05:30:43.870Z,13.60
2019-05-26T05:33:12.733Z,13.70
2019-05-26T05:35:41.855Z,13.79
2019-05-26T05:38:10.698Z,13.88
2019-05-26T05:40:39.497Z,13.99
2019-05-26T05:43:08.391Z,14.10
2019-05-26T05:45:37.292Z,14.17
2019-05-26T05:48:06.131Z,14.25
2019-05-26T05:50:38.964Z,14.31
2019-05-26T05:53:05.605Z,14.58
2019-05-26T05:55:34.347Z,15.23
2019-05-26T05:58:03.194Z,15.15
2019-05-26T06:00:32.116Z,15.15
2019-05-26T06:03:01.298Z,15.29
2019-05-26T06:05:31.183Z,15.20
2019-05-26T06:08:01.159Z,15.08
2019-05-26T06:10:30.077Z,15.03
2019-05-26T06:13:00.869Z,15.00
2019-05-26T06:15:29.884Z,15.04
2019-05-26T06:17:58.725Z,15.07
2019-05-26T06:20:29.686Z,15.13
2019-05-26T06:22:58.553Z,15.16
2019-05-26T06:25:27.520Z,15.24
2019-05-26T06:27:56.694Z,15.28
2019-05-26T06:30:26.019Z,15.43
2019-05-26T06:32:54.929Z,15.66
2019-05-26T06:35:23.800Z,16.04
2019-05-26T06:37:52.747Z,16.11
2019-05-26T06:40:21.756Z,16.66
2019-05-26T06:42:50.740Z,16.56
2019-05-26T06:45:19.810Z,16.68
2019-05-26T06:47:48.743Z,17.26
2019-05-26T06:50:17.736Z,18.61
2019-05-26T06:52:46.601Z,18.96
2019-05-26T06:55:15.659Z,19.16
2019-05-26T06:57:45.740Z,20.05
2019-05-26T07:00:14.602Z,20.79
2019-05-26T07:02:43.527Z,20.43
2019-05-26T07:05:12.436Z,20.50
2019-05-26T07:07:41.342Z,20.76
2019-05-26T07:10:10.292Z,21.55
2019-05-26T07:12:39.359Z,21.73
2019-05-26T07:15:08.397Z,21.65
2019-05-26T07:17:37.223Z,21.93
2019-05-26T07:20:06.634Z,21.37
2019-05-26T07:22:35.711Z,21.42
2019-05-26T07:25:05.042Z,21.29
2019-05-26T07:27:34.125Z,21.82
2019-05-26T07:30:03.038Z,22.33
2019-05-26T07:32:31.989Z,22.19
2019-05-26T07:35:00.814Z,22.19
2019-05-26T07:37:29.745Z,22.34
2019-05-26T07:39:58.789Z,22.56
2019-05-26T07:42:28.701Z,22.53
2019-05-26T07:44:57.865Z,22.71
2019-05-26T07:47:26.795Z,22.52
2019-05-26T07:49:57.723Z,22.34
2019-05-26T07:52:26.702Z,22.52
2019-05-26T07:54:55.626Z,22.28
2019-05-26T07:57:26.645Z,22.38
2019-05-26T07:59:55.575Z,22.33
2019-05-26T08:04:52.864Z,22.42
2019-05-26T08:07:23.962Z,22.56
2019-05-26T08:09:53.982Z,22.46
2019-05-26T08:12:26.136Z,22.08
2019-05-26T08:14:55.825Z,21.70
2019-05-26T08:17:24.619Z,21.94
2019-05-26T08:19:53.667Z,21.72
2019-05-26T08:22:22.570Z,22.13
2019-05-26T08:24:51.474Z,21.94
2019-05-26T08:27:20.414Z,22.09
2019-05-26T08:29:49.594Z,22.37
2019-05-26T08:32:19.093Z,22.38
2019-05-26T08:34:52.599Z,22.37
2019-05-26T08:37:21.924Z,21.91
2019-05-26T08:39:50.863Z,21.89
2019-05-26T08:42:28.831Z,22.13
2019-05-26T08:44:51.500Z,21.53
2019-05-26T08:47:20.706Z,21.29
2019-05-26T08:49:49.725Z,21.84
2019-05-26T08:52:20.034Z,22.00
2019-05-26T08:54:48.830Z,21.85
2019-05-26T08:57:17.778Z,21.41
2019-05-26T08:59:46.827Z,21.38
2019-05-26T09:02:16.691Z,21.64
2019-05-26T09:04:45.542Z,21.58
2019-05-26T09:07:14.452Z,21.15
2019-05-26T09:09:44.461Z,20.98
2019-05-26T09:12:13.373Z,21.54
2019-05-26T09:14:42.639Z,21.76
2019-05-26T09:17:11.610Z,21.93
2019-05-26T09:19:40.785Z,21.77
2019-05-26T09:22:13.283Z,21.86
2019-05-26T09:24:42.172Z,22.39
2019-05-26T09:27:11.362Z,22.13
2019-05-26T09:29:40.406Z,22.41
2019-05-26T09:32:09.494Z,22.66
2019-05-26T09:34:40.457Z,22.44
2019-05-26T09:37:09.480Z,22.52
2019-05-26T09:39:38.694Z,22.64
2019-05-26T09:42:15.735Z,22.88
2019-05-26T09:44:44.767Z,23.03
2019-05-26T09:47:13.588Z,22.67
2019-05-26T09:49:42.662Z,22.50
2019-05-26T09:52:11.682Z,22.11
2019-05-26T09:54:40.652Z,21.64
2019-05-26T09:57:09.638Z,21.28
2019-05-26T09:59:38.672Z,21.17
2019-05-26T10:02:10.560Z,20.94
2019-05-26T10:04:39.593Z,20.72
2019-05-26T10:07:12.167Z,20.67
2019-05-26T10:09:39.321Z,20.52
2019-05-26T10:12:08.335Z,20.39
2019-05-26T10:14:38.960Z,20.31
2019-05-26T10:17:08.330Z,20.39
2019-05-26T10:19:37.498Z,20.19
2019-05-26T10:22:06.601Z,20.06
2019-05-26T10:24:37.057Z,19.98
2019-05-26T10:27:06.034Z,19.95
2019-05-26T10:29:35.129Z,19.77
2019-05-26T10:32:04.170Z,19.71
2019-05-26T10:34:34.164Z,19.58
2019-05-26T10:37:03.170Z,19.54
2019-05-26T10:39:34.079Z,19.53
2019-05-26T10:42:03.010Z,19.57
2019-05-26T10:44:31.937Z,19.57
2019-05-26T10:47:00.924Z,19.62
2019-05-26T10:49:29.795Z,19.71
2019-05-26T10:51:58.839Z,19.83
2019-05-26T10:54:27.800Z,19.84
2019-05-26T10:56:56.792Z,19.96
2019-05-26T10:59:25.742Z,20.05
2019-05-26T11:01:54.998Z,20.07
2019-05-26T11:04:23.954Z,20.09
2019-05-26T11:06:53.004Z,20.05
2019-05-26T11:09:21.834Z,20.07
2019-05-26T11:11:50.842Z,20.11
2019-05-26T11:14:19.897Z,20.13
2019-05-26T11:16:49.305Z,20.26
2019-05-26T11:19:18.365Z,20.46
2019-05-26T11:21:47.339Z,20.59
2019-05-26T11:24:16.281Z,20.78
2019-05-26T11:26:45.172Z,20.85
2019-05-26T11:29:14.061Z,20.89
2019-05-26T11:31:42.953Z,20.98
2019-05-26T11:34:11.863Z,20.90
2019-05-26T11:36:40.791Z,20.96
2019-05-26T11:39:11.881Z,21.00
2019-05-26T11:41:41.276Z,20.98
2019-05-26T11:44:17.851Z,20.92
2019-05-26T11:46:40.822Z,20.86
2019-05-26T11:49:09.710Z,20.77
2019-05-26T11:51:38.601Z,20.79
2019-05-26T11:54:07.582Z,20.75
2019-05-26T11:56:36.753Z,20.84
2019-05-26T11:59:05.631Z,20.83
2019-05-26T12:01:34.638Z,20.89
2019-05-26T12:04:03.546Z,20.98
2019-05-26T12:06:32.345Z,21.17
2019-05-26T12:09:01.494Z,21.28
2019-05-26T12:11:30.343Z,21.54
2019-05-26T12:13:59.482Z,21.59
2019-05-26T12:16:29.039Z,21.64
2019-05-26T12:18:57.810Z,21.82
2019-05-26T12:21:26.624Z,21.94
2019-05-26T12:23:55.491Z,21.80
2019-05-26T12:26:24.276Z,21.90
2019-05-26T12:28:53.161Z,22.12
2019-05-26T12:31:22.154Z,22.24
2019-05-26T12:33:51.918Z,22.16
2019-05-26T12:36:21.142Z,22.29
2019-05-26T12:38:52.859Z,22.37
2019-05-26T12:41:22.874Z,22.43
2019-05-26T12:43:51.778Z,22.50
2019-05-26T12:46:22.215Z,22.57
2019-05-26T12:48:51.128Z,22.59
2019-05-26T12:51:20.036Z,22.45
2019-05-26T12:53:48.962Z,22.25
2019-05-26T12:56:17.701Z,21.83
2019-05-26T12:58:46.831Z,21.66
2019-05-26T13:01:16.007Z,21.83
2019-05-26T13:03:44.839Z,21.82
2019-05-26T13:06:17.307Z,21.86
2019-05-26T13:08:44.444Z,21.93
2019-05-26T13:11:13.370Z,21.70
2019-05-26T13:13:44.623Z,21.73
2019-05-26T13:16:13.508Z,21.54
2019-05-26T13:18:42.311Z,21.39
2019-05-26T13:21:11.283Z,21.36
2019-05-26T13:23:40.220Z,21.50
2019-05-26T13:26:09.207Z,21.54
2019-05-26T13:28:38.306Z,21.67
2019-05-26T13:31:07.347Z,21.75
2019-05-26T13:33:36.331Z,21.81
2019-05-26T13:36:05.510Z,21.83
2019-05-26T13:38:34.457Z,21.88
2019-05-26T13:41:03.311Z,21.82
2019-05-26T13:43:32.263Z,21.74
2019-05-26T13:46:02.096Z,21.66
2019-05-26T13:48:32.006Z,21.69
2019-05-26T13:51:01.164Z,21.61
2019-05-26T13:53:32.122Z,21.50
2019-05-26T13:56:01.098Z,21.60
2019-05-26T13:58:31.178Z,21.51
2019-05-26T14:01:00.245Z,21.56
2019-05-26T14:03:29.796Z,21.64
2019-05-26T14:05:58.603Z,21.69
2019-05-26T14:08:27.563Z,21.75
2019-05-26T14:10:56.571Z,21.79
2019-05-26T14:13:25.758Z,21.92
2019-05-26T14:15:55.993Z,21.91
2019-05-26T14:18:24.932Z,22.01
2019-05-26T14:20:54.091Z,22.06
2019-05-26T14:23:26.011Z,22.25
2019-05-26T14:25:54.974Z,22.39
2019-05-26T14:28:23.864Z,22.39
2019-05-26T14:30:52.810Z,22.30
2019-05-26T14:33:21.676Z,22.05
2019-05-26T14:35:50.803Z,22.02
2019-05-26T14:38:19.784Z,21.95
2019-05-26T14:40:48.746Z,22.02
2019-05-26T14:43:17.714Z,22.15
2019-05-26T14:45:53.378Z,22.17
2019-05-26T14:48:17.209Z,22.32
2019-05-26T14:50:45.999Z,22.34
2019-05-26T14:53:15.144Z,22.35
2019-05-26T14:55:44.184Z,22.49
2019-05-26T14:58:16.030Z,22.67
2019-05-26T15:00:44.185Z,22.82
2019-05-26T15:03:13.512Z,22.77
2019-05-26T15:05:44.872Z,22.93
2019-05-26T15:08:14.060Z,23.00
2019-05-26T15:10:43.273Z,23.13
2019-05-26T15:13:12.559Z,23.21
2019-05-26T15:15:41.526Z,23.21
2019-05-26T15:18:10.416Z,23.13
2019-05-26T15:20:39.325Z,23.12
2019-05-26T15:23:08.326Z,22.85
2019-05-26T15:25:37.650Z,22.74
2019-05-26T15:28:06.614Z,22.68
2019-05-26T15:30:35.697Z,22.66
2019-05-26T15:33:05.796Z,22.52
2019-05-26T15:35:34.851Z,22.51
2019-05-26T15:38:03.707Z,22.48
2019-05-26T15:40:32.546Z,22.36
2019-05-26T15:43:01.685Z,22.22
2019-05-26T15:45:30.561Z,22.10
2019-05-26T15:47:59.424Z,21.87
2019-05-26T15:50:28.396Z,22.02
2019-05-26T15:52:57.734Z,22.10
2019-05-26T15:55:27.011Z,22.26
2019-05-26T15:57:57.348Z,22.33
2019-05-26T16:00:26.550Z,22.37
2019-05-26T16:02:57.717Z,22.53
2019-05-26T16:05:27.697Z,22.53
2019-05-26T16:07:56.745Z,22.61
2019-05-26T16:10:25.681Z,22.56
2019-05-26T16:12:55.651Z,22.60
2019-05-26T16:15:24.590Z,22.50
2019-05-26T16:17:53.722Z,22.54
2019-05-26T16:20:22.660Z,22.60
2019-05-26T16:22:53.314Z,22.52
2019-05-26T16:25:22.178Z,22.62
2019-05-26T16:27:51.414Z,22.42
2019-05-26T16:30:21.073Z,22.45
2019-05-26T16:32:50.376Z,22.45
2019-05-26T16:35:19.809Z,22.34
2019-05-26T16:37:49.917Z,22.16
2019-05-26T16:40:19.153Z,21.91
2019-05-26T16:42:48.351Z,21.78
2019-05-26T16:45:17.755Z,21.54
2019-05-26T16:47:46.979Z,21.26
2019-05-26T16:50:16.259Z,21.05
2019-05-26T16:52:45.542Z,20.96
2019-05-26T16:55:16.794Z,20.83
2019-05-26T16:57:46.151Z,20.92
2019-05-26T17:00:15.662Z,20.91
2019-05-26T17:02:45.989Z,20.93
2019-05-26T17:05:15.053Z,20.86
2019-05-26T17:07:44.298Z,20.82
2019-05-26T17:10:13.486Z,20.79
2019-05-26T17:12:42.625Z,20.70
2019-05-26T17:15:12.114Z,20.67
2019-05-26T17:17:41.488Z,20.73
2019-05-26T17:20:11.186Z,20.66
2019-05-26T17:22:40.325Z,20.66
2019-05-26T17:25:09.810Z,20.68
2019-05-26T17:27:38.899Z,20.58
2019-05-26T17:30:08.459Z,20.54
2019-05-26T17:32:37.642Z,20.45
2019-05-26T17:35:07.663Z,20.36
2019-05-26T17:37:36.818Z,20.40
2019-05-26T17:40:06.257Z,20.31
2019-05-26T17:42:35.512Z,20.26
2019-05-26T17:45:04.930Z,20.12
2019-05-26T17:47:33.926Z,20.07
2019-05-26T17:50:03.333Z,20.05
2019-05-26T17:52:32.291Z,20.08
2019-05-26T17:55:01.844Z,20.03
2019-05-26T17:57:30.816Z,19.96
2019-05-26T17:59:59.814Z,19.89
2019-05-26T18:02:28.908Z,19.75
2019-05-26T18:04:58.139Z,19.72
2019-05-26T18:07:27.242Z,19.70
2019-05-26T18:09:56.202Z,19.57
2019-05-26T18:12:25.094Z,19.50
2019-05-26T18:14:54.172Z,19.42
2019-05-26T18:17:23.273Z,19.42
2019-05-26T18:19:52.306Z,19.32
2019-05-26T18:22:21.951Z,19.24
2019-05-26T18:24:56.619Z,19.17
2019-05-26T18:27:21.544Z,19.07
2019-05-26T18:29:50.268Z,19.00
2019-05-26T18:32:19.346Z,18.90
2019-05-26T18:34:50.191Z,18.88
2019-05-26T18:37:19.086Z,18.74
2019-05-26T18:39:48.229Z,18.64
2019-05-26T18:42:17.561Z,18.47
2019-05-26T18:44:49.324Z,18.33
2019-05-26T18:47:18.229Z,18.28
2019-05-26T18:49:47.170Z,18.15
2019-05-26T18:52:16.038Z,17.96
2019-05-26T18:54:44.967Z,17.78
2019-05-26T18:57:14.947Z,17.58
2019-05-26T18:59:43.778Z,17.62
2019-05-26T19:02:12.739Z,17.49
2019-05-26T19:04:41.877Z,17.37
2019-05-26T19:07:13.890Z,17.27
2019-05-26T19:09:42.961Z,17.14
2019-05-26T19:12:12.251Z,16.93
2019-05-26T19:14:41.260Z,16.86
2019-05-26T19:17:10.392Z,16.69
2019-05-26T19:19:39.666Z,16.48
2019-05-26T19:22:08.985Z,16.33
2019-05-26T19:24:39.205Z,16.32
2019-05-26T19:27:08.303Z,16.21
2019-05-26T19:29:37.579Z,16.09
2019-05-26T19:32:06.489Z,16.05
2019-05-26T19:34:35.477Z,15.95
2019-05-26T19:37:04.377Z,15.86
2019-05-26T19:39:33.428Z,15.74
2019-05-26T19:42:02.386Z,15.77
2019-05-26T19:44:31.316Z,15.73
2019-05-26T19:47:00.310Z,15.66
2019-05-26T19:49:29.794Z,15.61
2019-05-26T19:51:58.579Z,15.45
2019-05-26T19:54:27.949Z,15.37
2019-05-26T19:56:56.875Z,15.31
2019-05-26T19:59:25.629Z,15.28
2019-05-26T20:01:54.688Z,15.26
2019-05-26T20:04:23.794Z,15.17
2019-05-26T20:06:53.182Z,15.03
2019-05-26T20:09:22.098Z,14.90
2019-05-26T20:11:51.669Z,14.79
2019-05-26T20:14:20.905Z,14.81
2019-05-26T20:16:49.881Z,14.75
2019-05-26T20:19:18.650Z,14.64
2019-05-26T20:21:47.658Z,14.66
2019-05-26T20:24:16.463Z,14.62
2019-05-26T20:26:45.381Z,14.64
2019-05-26T20:29:14.197Z,14.58
2019-05-26T20:31:43.118Z,14.52
2019-05-26T20:34:12.010Z,14.43
2019-05-26T20:36:40.979Z,14.39
2019-05-26T20:39:10.334Z,14.42
2019-05-26T20:41:39.163Z,14.33
2019-05-26T20:44:08.248Z,14.23
2019-05-26T20:46:37.096Z,14.23
2019-05-26T20:49:06.059Z,14.28
2019-05-26T20:51:35.648Z,14.28
2019-05-26T20:54:05.850Z,14.24
2019-05-26T20:56:34.858Z,14.10
2019-05-26T20:59:03.694Z,14.08
2019-05-26T21:01:32.519Z,14.06
2019-05-26T21:04:01.420Z,14.03
2019-05-26T21:06:30.312Z,13.97
2019-05-26T21:08:59.152Z,13.96
2019-05-26T21:11:27.995Z,13.85
2019-05-26T21:13:57.056Z,13.78
2019-05-26T21:16:28.164Z,13.78
2019-05-26T21:18:56.993Z,13.74
2019-05-26T21:21:25.866Z,13.63
2019-05-26T21:23:54.764Z,13.63
2019-05-26T21:26:23.579Z,13.63
2019-05-26T21:28:52.481Z,13.56
2019-05-26T21:31:23.282Z,13.56
2019-05-26T21:33:52.224Z,13.57
2019-05-26T21:36:22.098Z,13.55
2019-05-26T21:38:50.853Z,13.44
2019-05-26T21:41:19.746Z,13.47
2019-05-26T21:43:48.642Z,13.40
2019-05-26T21:46:17.705Z,13.36
2019-05-26T21:48:46.669Z,13.38
2019-05-26T21:51:15.588Z,13.42
2019-05-26T21:53:44.401Z,13.38
2019-05-26T21:56:13.307Z,13.43
2019-05-26T21:58:42.178Z,13.46
2019-05-26T22:01:11.015Z,13.51
2019-05-26T22:03:39.838Z,13.54
2019-05-26T22:06:08.699Z,13.55
2019-05-26T22:08:37.471Z,13.62
2019-05-26T22:11:06.365Z,13.66
2019-05-26T22:13:35.224Z,13.68
2019-05-26T22:16:04.116Z,13.73
2019-05-26T22:18:32.968Z,13.78
2019-05-26T22:21:01.793Z,13.76
2019-05-26T22:23:30.774Z,13.78
2019-05-26T22:25:59.699Z,13.78
2019-05-26T22:28:28.736Z,13.76
2019-05-26T22:30:57.585Z,13.68
2019-05-26T22:33:26.448Z,13.66
2019-05-26T22:35:55.247Z,13.63
2019-05-26T22:38:24.127Z,13.67
2019-05-26T22:40:52.946Z,13.68
2019-05-26T22:43:21.998Z,13.66
2019-05-26T22:45:51.138Z,13.62
2019-05-26T22:48:19.977Z,13.59
2019-05-26T22:50:49.172Z,13.61
2019-05-26T22:53:18.063Z,13.57
2019-05-26T22:55:51.111Z,13.56
2019-05-26T22:58:19.934Z,13.51
2019-05-26T23:00:48.987Z,13.52
2019-05-26T23:03:18.800Z,13.46
2019-05-26T23:05:47.544Z,13.46
2019-05-26T23:08:16.452Z,13.52
2019-05-26T23:10:45.292Z,13.44
2019-05-26T23:13:14.057Z,13.37
2019-05-26T23:15:42.851Z,13.29
2019-05-26T23:18:11.682Z,13.22
2019-05-26T23:20:40.670Z,13.10
2019-05-26T23:23:09.515Z,13.06
2019-05-26T23:25:38.451Z,12.96
2019-05-26T23:28:07.310Z,12.93
2019-05-26T23:30:36.505Z,12.87
2019-05-26T23:33:05.860Z,12.79
2019-05-26T23:35:35.001Z,12.72
2019-05-26T23:38:04.028Z,12.72
2019-05-26T23:40:32.833Z,12.66
2019-05-26T23:43:02.007Z,12.62
2019-05-26T23:45:31.051Z,12.58
2019-05-26T23:47:59.991Z,12.59
2019-05-26T23:50:28.831Z,12.55
2019-05-26T23:52:57.899Z,12.48
2019-05-26T23:55:26.966Z,12.45
2019-05-26T23:57:55.862Z,12.39
